sensor_id;sensor_type;location;lat;lon;timestamp;P1;durP1;ratioP1;P2;durP2;ratioP2
34900;SDS011;21112;51.976;5.660;2022-09-30T00:00:55;8.23;;;3.58;;
34900;SDS011;21112;51.976;5.660;2022-09-30T00:03:21;7.13;;;3.47;;
34900;SDS011;21112;51.976;5.660;2022-09-30T00:05:54;9.02;;;4.05;;
34900;SDS011;21112;51.976;5.660;2022-09-30T00:08:21;8.38;;;3.50;;
34900;SDS011;21112;51.976;5.660;2022-09-30T00:10:47;12.35;;;3.90;;
34900;SDS011;21112;51.976;5.660;2022-09-30T00:13:25;7.10;;;3.20;;
34900;SDS011;21112;51.976;5.660;2022-09-30T00:15:51;8.98;;;3.67;;
34900;SDS011;21112;51.976;5.660;2022-09-30T00:18:18;8.27;;;3.45;;
34900;SDS011;21112;51.976;5.660;2022-09-30T00:20:44;9.80;;;3.80;;
34900;SDS011;21112;51.976;5.660;2022-09-30T00:23:11;8.57;;;3.90;;
34900;SDS011;21112;51.976;5.660;2022-09-30T00:25:38;9.77;;;3.75;;
34900;SDS011;21112;51.976;5.660;2022-09-30T00:28:04;6.80;;;3.42;;
34900;SDS011;21112;51.976;5.660;2022-09-30T00:30:33;7.80;;;3.65;;
34900;SDS011;21112;51.976;5.660;2022-09-30T00:33:00;7.78;;;3.47;;
34900;SDS011;21112;51.976;5.660;2022-09-30T00:35:26;8.77;;;4.00;;
34900;SDS011;21112;51.976;5.660;2022-09-30T00:37:53;7.72;;;3.63;;
34900;SDS011;21112;51.976;5.660;2022-09-30T00:40:19;8.10;;;3.70;;
34900;SDS011;21112;51.976;5.660;2022-09-30T00:42:46;10.68;;;3.47;;
34900;SDS011;21112;51.976;5.660;2022-09-30T00:45:13;8.18;;;3.42;;
34900;SDS011;21112;51.976;5.660;2022-09-30T00:47:47;8.05;;;3.92;;
34900;SDS011;21112;51.976;5.660;2022-09-30T00:50:24;6.57;;;3.17;;
34900;SDS011;21112;51.976;5.660;2022-09-30T00:52:52;8.63;;;3.85;;
34900;SDS011;21112;51.976;5.660;2022-09-30T00:55:30;7.25;;;3.22;;
34900;SDS011;21112;51.976;5.660;2022-09-30T00:57:59;7.90;;;3.60;;
34900;SDS011;21112;51.976;5.660;2022-09-30T01:00:27;7.70;;;3.55;;
34900;SDS011;21112;51.976;5.660;2022-09-30T01:02:55;8.70;;;3.58;;
34900;SDS011;21112;51.976;5.660;2022-09-30T01:05:21;11.20;;;3.58;;
34900;SDS011;21112;51.976;5.660;2022-09-30T01:07:52;7.30;;;3.70;;
34900;SDS011;21112;51.976;5.660;2022-09-30T01:10:21;8.73;;;3.58;;
34900;SDS011;21112;51.976;5.660;2022-09-30T01:12:48;8.20;;;3.63;;
34900;SDS011;21112;51.976;5.660;2022-09-30T01:15:14;7.15;;;3.47;;
34900;SDS011;21112;51.976;5.660;2022-09-30T01:17:44;8.25;;;3.63;;
34900;SDS011;21112;51.976;5.660;2022-09-30T01:23:03;8.18;;;3.38;;
34900;SDS011;21112;51.976;5.660;2022-09-30T01:28:23;8.55;;;3.38;;
34900;SDS011;21112;51.976;5.660;2022-09-30T01:31:02;7.10;;;3.38;;
34900;SDS011;21112;51.976;5.660;2022-09-30T01:33:34;8.38;;;3.97;;
34900;SDS011;21112;51.976;5.660;2022-09-30T01:36:12;10.20;;;3.65;;
34900;SDS011;21112;51.976;5.660;2022-09-30T01:38:44;10.20;;;3.70;;
34900;SDS011;21112;51.976;5.660;2022-09-30T01:41:14;6.95;;;3.40;;
34900;SDS011;21112;51.976;5.660;2022-09-30T01:43:44;7.75;;;3.33;;
34900;SDS011;21112;51.976;5.660;2022-09-30T01:46:16;7.95;;;3.40;;
34900;SDS011;21112;51.976;5.660;2022-09-30T01:48:45;7.95;;;3.75;;
34900;SDS011;21112;51.976;5.660;2022-09-30T01:51:16;7.05;;;3.50;;
34900;SDS011;21112;51.976;5.660;2022-09-30T01:53:44;7.35;;;3.28;;
34900;SDS011;21112;51.976;5.660;2022-09-30T01:56:15;7.40;;;3.22;;
34900;SDS011;21112;51.976;5.660;2022-09-30T01:58:48;6.68;;;3.10;;
34900;SDS011;21112;51.976;5.660;2022-09-30T02:01:18;9.75;;;3.38;;
34900;SDS011;21112;51.976;5.660;2022-09-30T02:03:49;10.48;;;3.03;;
34900;SDS011;21112;51.976;5.660;2022-09-30T02:06:18;9.35;;;3.45;;
34900;SDS011;21112;51.976;5.660;2022-09-30T02:08:47;7.85;;;3.38;;
34900;SDS011;21112;51.976;5.660;2022-09-30T02:11:19;7.57;;;3.60;;
34900;SDS011;21112;51.976;5.660;2022-09-30T02:13:50;8.55;;;3.55;;
34900;SDS011;21112;51.976;5.660;2022-09-30T02:16:21;11.07;;;3.53;;
34900;SDS011;21112;51.976;5.660;2022-09-30T02:18:49;6.95;;;3.40;;
34900;SDS011;21112;51.976;5.660;2022-09-30T02:21:18;10.13;;;3.78;;
34900;SDS011;21112;51.976;5.660;2022-09-30T02:23:46;9.00;;;3.60;;
34900;SDS011;21112;51.976;5.660;2022-09-30T02:26:15;9.98;;;3.28;;
34900;SDS011;21112;51.976;5.660;2022-09-30T02:28:44;8.23;;;3.95;;
34900;SDS011;21112;51.976;5.660;2022-09-30T02:31:11;7.82;;;3.38;;
34900;SDS011;21112;51.976;5.660;2022-09-30T02:33:41;10.85;;;3.72;;
34900;SDS011;21112;51.976;5.660;2022-09-30T02:36:10;8.48;;;3.22;;
34900;SDS011;21112;51.976;5.660;2022-09-30T02:38:41;8.05;;;3.78;;
34900;SDS011;21112;51.976;5.660;2022-09-30T02:41:10;8.45;;;3.30;;
34900;SDS011;21112;51.976;5.660;2022-09-30T02:43:37;8.65;;;3.78;;
34900;SDS011;21112;51.976;5.660;2022-09-30T02:48:34;6.47;;;3.00;;
34900;SDS011;21112;51.976;5.660;2022-09-30T02:51:08;7.70;;;3.28;;
34900;SDS011;21112;51.976;5.660;2022-09-30T02:53:36;8.05;;;3.60;;
34900;SDS011;21112;51.976;5.660;2022-09-30T02:56:08;9.57;;;3.13;;
34900;SDS011;21112;51.976;5.660;2022-09-30T02:58:36;7.93;;;3.38;;
34900;SDS011;21112;51.976;5.660;2022-09-30T03:01:04;9.65;;;3.80;;
34900;SDS011;21112;51.976;5.660;2022-09-30T03:03:32;7.93;;;3.40;;
34900;SDS011;21112;51.976;5.660;2022-09-30T03:08:28;8.88;;;3.45;;
34900;SDS011;21112;51.976;5.660;2022-09-30T03:10:54;8.90;;;3.60;;
34900;SDS011;21112;51.976;5.660;2022-09-30T03:13:29;8.45;;;3.50;;
34900;SDS011;21112;51.976;5.660;2022-09-30T03:16:04;7.30;;;3.25;;
34900;SDS011;21112;51.976;5.660;2022-09-30T03:18:39;8.50;;;3.33;;
34900;SDS011;21112;51.976;5.660;2022-09-30T03:21:14;7.55;;;3.60;;
34900;SDS011;21112;51.976;5.660;2022-09-30T03:24:01;8.15;;;3.63;;
34900;SDS011;21112;51.976;5.660;2022-09-30T03:26:35;8.25;;;3.75;;
34900;SDS011;21112;51.976;5.660;2022-09-30T03:29:06;7.93;;;3.78;;
34900;SDS011;21112;51.976;5.660;2022-09-30T03:31:38;8.32;;;3.58;;
34900;SDS011;21112;51.976;5.660;2022-09-30T03:34:07;9.48;;;3.33;;
34900;SDS011;21112;51.976;5.660;2022-09-30T03:36:40;8.95;;;3.58;;
34900;SDS011;21112;51.976;5.660;2022-09-30T03:39:12;8.82;;;3.85;;
34900;SDS011;21112;51.976;5.660;2022-09-30T03:41:43;8.07;;;3.72;;
34900;SDS011;21112;51.976;5.660;2022-09-30T03:44:13;8.55;;;3.30;;
34900;SDS011;21112;51.976;5.660;2022-09-30T03:46:42;7.25;;;3.10;;
34900;SDS011;21112;51.976;5.660;2022-09-30T03:51:37;10.15;;;3.40;;
34900;SDS011;21112;51.976;5.660;2022-09-30T03:54:05;8.52;;;3.40;;
34900;SDS011;21112;51.976;5.660;2022-09-30T03:59:08;6.22;;;3.13;;
34900;SDS011;21112;51.976;5.660;2022-09-30T04:01:35;7.88;;;3.53;;
34900;SDS011;21112;51.976;5.660;2022-09-30T04:04:01;7.80;;;3.53;;
34900;SDS011;21112;51.976;5.660;2022-09-30T04:06:28;7.75;;;3.70;;
34900;SDS011;21112;51.976;5.660;2022-09-30T04:08:54;8.23;;;3.60;;
34900;SDS011;21112;51.976;5.660;2022-09-30T04:11:21;7.50;;;3.55;;
34900;SDS011;21112;51.976;5.660;2022-09-30T04:13:48;8.52;;;3.40;;
34900;SDS011;21112;51.976;5.660;2022-09-30T04:16:16;8.05;;;3.65;;
34900;SDS011;21112;51.976;5.660;2022-09-30T04:18:43;8.35;;;3.63;;
34900;SDS011;21112;51.976;5.660;2022-09-30T04:21:11;7.40;;;3.22;;
34900;SDS011;21112;51.976;5.660;2022-09-30T04:23:38;7.93;;;3.85;;
34900;SDS011;21112;51.976;5.660;2022-09-30T04:26:05;10.05;;;3.63;;
34900;SDS011;21112;51.976;5.660;2022-09-30T04:28:32;8.35;;;3.38;;
34900;SDS011;21112;51.976;5.660;2022-09-30T04:30:59;7.40;;;3.33;;
34900;SDS011;21112;51.976;5.660;2022-09-30T04:33:28;7.07;;;3.15;;
34900;SDS011;21112;51.976;5.660;2022-09-30T04:35:54;7.05;;;3.40;;
34900;SDS011;21112;51.976;5.660;2022-09-30T04:38:21;8.25;;;3.72;;
34900;SDS011;21112;51.976;5.660;2022-09-30T04:40:48;7.75;;;3.25;;
34900;SDS011;21112;51.976;5.660;2022-09-30T04:43:15;7.03;;;3.35;;
34900;SDS011;21112;51.976;5.660;2022-09-30T04:45:43;8.00;;;3.10;;
34900;SDS011;21112;51.976;5.660;2022-09-30T04:48:10;7.50;;;3.53;;
34900;SDS011;21112;51.976;5.660;2022-09-30T04:50:38;8.15;;;3.88;;
34900;SDS011;21112;51.976;5.660;2022-09-30T04:53:04;11.80;;;3.50;;
34900;SDS011;21112;51.976;5.660;2022-09-30T04:55:31;7.10;;;3.50;;
34900;SDS011;21112;51.976;5.660;2022-09-30T04:57:57;7.88;;;3.30;;
34900;SDS011;21112;51.976;5.660;2022-09-30T05:00:24;7.55;;;3.25;;
34900;SDS011;21112;51.976;5.660;2022-09-30T05:02:51;8.10;;;3.20;;
34900;SDS011;21112;51.976;5.660;2022-09-30T05:05:18;7.18;;;3.15;;
34900;SDS011;21112;51.976;5.660;2022-09-30T05:07:46;7.63;;;3.28;;
34900;SDS011;21112;51.976;5.660;2022-09-30T05:10:13;7.18;;;3.38;;
34900;SDS011;21112;51.976;5.660;2022-09-30T05:12:40;6.70;;;3.17;;
34900;SDS011;21112;51.976;5.660;2022-09-30T05:15:09;7.22;;;3.25;;
34900;SDS011;21112;51.976;5.660;2022-09-30T05:17:35;6.47;;;3.00;;
34900;SDS011;21112;51.976;5.660;2022-09-30T05:20:03;6.57;;;3.10;;
34900;SDS011;21112;51.976;5.660;2022-09-30T05:22:35;7.30;;;3.35;;
34900;SDS011;21112;51.976;5.660;2022-09-30T05:25:04;6.93;;;3.10;;
34900;SDS011;21112;51.976;5.660;2022-09-30T05:27:32;5.82;;;2.97;;
34900;SDS011;21112;51.976;5.660;2022-09-30T05:29:59;6.63;;;3.17;;
34900;SDS011;21112;51.976;5.660;2022-09-30T05:32:26;5.90;;;2.90;;
34900;SDS011;21112;51.976;5.660;2022-09-30T05:34:52;5.40;;;2.60;;
34900;SDS011;21112;51.976;5.660;2022-09-30T05:37:19;6.95;;;3.03;;
34900;SDS011;21112;51.976;5.660;2022-09-30T05:39:46;7.88;;;2.90;;
34900;SDS011;21112;51.976;5.660;2022-09-30T05:42:15;6.32;;;2.90;;
34900;SDS011;21112;51.976;5.660;2022-09-30T05:44:43;6.53;;;2.65;;
34900;SDS011;21112;51.976;5.660;2022-09-30T05:47:10;6.43;;;2.65;;
34900;SDS011;21112;51.976;5.660;2022-09-30T05:49:37;6.05;;;3.00;;
34900;SDS011;21112;51.976;5.660;2022-09-30T05:52:05;6.47;;;3.10;;
34900;SDS011;21112;51.976;5.660;2022-09-30T05:54:32;6.57;;;3.28;;
34900;SDS011;21112;51.976;5.660;2022-09-30T05:56:58;7.60;;;3.38;;
34900;SDS011;21112;51.976;5.660;2022-09-30T05:59:27;7.72;;;3.30;;
34900;SDS011;21112;51.976;5.660;2022-09-30T06:01:55;6.55;;;2.80;;
34900;SDS011;21112;51.976;5.660;2022-09-30T06:04:21;8.10;;;3.42;;
34900;SDS011;21112;51.976;5.660;2022-09-30T06:06:48;6.70;;;3.00;;
34900;SDS011;21112;51.976;5.660;2022-09-30T06:09:14;7.82;;;3.45;;
34900;SDS011;21112;51.976;5.660;2022-09-30T06:11:42;8.25;;;3.20;;
34900;SDS011;21112;51.976;5.660;2022-09-30T06:14:09;7.45;;;3.20;;
34900;SDS011;21112;51.976;5.660;2022-09-30T06:16:37;6.22;;;2.78;;
34900;SDS011;21112;51.976;5.660;2022-09-30T06:19:03;6.82;;;2.80;;
34900;SDS011;21112;51.976;5.660;2022-09-30T06:21:33;13.65;;;6.53;;
34900;SDS011;21112;51.976;5.660;2022-09-30T06:26:25;7.93;;;3.05;;
34900;SDS011;21112;51.976;5.660;2022-09-30T06:28:52;6.93;;;3.38;;
34900;SDS011;21112;51.976;5.660;2022-09-30T06:31:19;8.13;;;2.97;;
34900;SDS011;21112;51.976;5.660;2022-09-30T06:33:47;5.82;;;2.70;;
34900;SDS011;21112;51.976;5.660;2022-09-30T06:36:13;8.90;;;3.37;;
34900;SDS011;21112;51.976;5.660;2022-09-30T06:38:41;7.97;;;3.47;;
34900;SDS011;21112;51.976;5.660;2022-09-30T06:41:08;8.18;;;3.25;;
34900;SDS011;21112;51.976;5.660;2022-09-30T06:43:35;9.38;;;3.75;;
34900;SDS011;21112;51.976;5.660;2022-09-30T06:46:01;6.65;;;3.47;;
34900;SDS011;21112;51.976;5.660;2022-09-30T06:48:28;8.05;;;3.25;;
34900;SDS011;21112;51.976;5.660;2022-09-30T06:50:57;8.05;;;3.35;;
34900;SDS011;21112;51.976;5.660;2022-09-30T06:53:24;6.30;;;3.15;;
34900;SDS011;21112;51.976;5.660;2022-09-30T06:55:53;7.90;;;3.28;;
34900;SDS011;21112;51.976;5.660;2022-09-30T07:00:55;9.40;;;3.50;;
34900;SDS011;21112;51.976;5.660;2022-09-30T07:03:22;19.02;;;7.75;;
34900;SDS011;21112;51.976;5.660;2022-09-30T07:05:53;7.90;;;3.75;;
34900;SDS011;21112;51.976;5.660;2022-09-30T07:08:22;8.70;;;3.53;;
34900;SDS011;21112;51.976;5.660;2022-09-30T07:10:50;7.18;;;3.22;;
34900;SDS011;21112;51.976;5.660;2022-09-30T07:13:17;9.15;;;4.28;;
34900;SDS011;21112;51.976;5.660;2022-09-30T07:15:44;13.52;;;5.47;;
34900;SDS011;21112;51.976;5.660;2022-09-30T07:18:11;12.73;;;5.85;;
34900;SDS011;21112;51.976;5.660;2022-09-30T07:20:37;11.02;;;5.40;;
34900;SDS011;21112;51.976;5.660;2022-09-30T07:23:04;12.57;;;4.13;;
34900;SDS011;21112;51.976;5.660;2022-09-30T07:25:32;13.93;;;6.05;;
34900;SDS011;21112;51.976;5.660;2022-09-30T07:27:58;7.70;;;4.00;;
34900;SDS011;21112;51.976;5.660;2022-09-30T07:30:25;8.85;;;3.92;;
34900;SDS011;21112;51.976;5.660;2022-09-30T07:32:52;17.20;;;6.70;;
34900;SDS011;21112;51.976;5.660;2022-09-30T07:35:18;15.75;;;6.72;;
34900;SDS011;21112;51.976;5.660;2022-09-30T07:37:45;9.40;;;4.30;;
34900;SDS011;21112;51.976;5.660;2022-09-30T07:40:12;19.55;;;8.50;;
34900;SDS011;21112;51.976;5.660;2022-09-30T07:42:40;18.08;;;7.90;;
34900;SDS011;21112;51.976;5.660;2022-09-30T07:45:09;18.92;;;9.05;;
34900;SDS011;21112;51.976;5.660;2022-09-30T07:47:40;22.23;;;8.73;;
34900;SDS011;21112;51.976;5.660;2022-09-30T07:50:06;21.90;;;8.75;;
34900;SDS011;21112;51.976;5.660;2022-09-30T07:52:35;19.80;;;9.55;;
34900;SDS011;21112;51.976;5.660;2022-09-30T07:55:02;11.73;;;5.40;;
34900;SDS011;21112;51.976;5.660;2022-09-30T07:57:29;21.38;;;9.32;;
34900;SDS011;21112;51.976;5.660;2022-09-30T07:59:58;18.25;;;8.25;;
34900;SDS011;21112;51.976;5.660;2022-09-30T08:02:25;9.35;;;5.20;;
34900;SDS011;21112;51.976;5.660;2022-09-30T08:04:51;18.10;;;8.00;;
34900;SDS011;21112;51.976;5.660;2022-09-30T08:07:18;17.80;;;9.32;;
34900;SDS011;21112;51.976;5.660;2022-09-30T08:09:44;15.23;;;7.22;;
34900;SDS011;21112;51.976;5.660;2022-09-30T08:12:11;12.15;;;5.93;;
34900;SDS011;21112;51.976;5.660;2022-09-30T08:14:38;19.73;;;9.93;;
34900;SDS011;21112;51.976;5.660;2022-09-30T08:17:06;11.50;;;5.97;;
34900;SDS011;21112;51.976;5.660;2022-09-30T08:19:32;22.63;;;11.63;;
34900;SDS011;21112;51.976;5.660;2022-09-30T08:21:59;21.75;;;11.90;;
34900;SDS011;21112;51.976;5.660;2022-09-30T08:24:27;17.25;;;9.57;;
34900;SDS011;21112;51.976;5.660;2022-09-30T08:26:54;18.90;;;10.70;;
34900;SDS011;21112;51.976;5.660;2022-09-30T08:29:20;26.92;;;11.65;;
34900;SDS011;21112;51.976;5.660;2022-09-30T08:31:47;22.33;;;10.73;;
34900;SDS011;21112;51.976;5.660;2022-09-30T08:34:16;20.15;;;9.88;;
34900;SDS011;21112;51.976;5.660;2022-09-30T08:36:43;13.77;;;7.20;;
34900;SDS011;21112;51.976;5.660;2022-09-30T08:39:11;21.90;;;11.38;;
34900;SDS011;21112;51.976;5.660;2022-09-30T08:41:50;25.55;;;12.82;;
34900;SDS011;21112;51.976;5.660;2022-09-30T08:44:27;24.98;;;12.43;;
34900;SDS011;21112;51.976;5.660;2022-09-30T08:46:59;23.98;;;12.73;;
34900;SDS011;21112;51.976;5.660;2022-09-30T08:49:35;24.75;;;13.65;;
34900;SDS011;21112;51.976;5.660;2022-09-30T08:52:07;17.23;;;8.68;;
34900;SDS011;21112;51.976;5.660;2022-09-30T08:54:36;24.85;;;12.48;;
34900;SDS011;21112;51.976;5.660;2022-09-30T08:57:04;25.55;;;10.60;;
34900;SDS011;21112;51.976;5.660;2022-09-30T08:59:33;22.90;;;11.70;;
34900;SDS011;21112;51.976;5.660;2022-09-30T09:02:03;26.65;;;12.13;;
34900;SDS011;21112;51.976;5.660;2022-09-30T09:04:39;33.05;;;14.32;;
34900;SDS011;21112;51.976;5.660;2022-09-30T09:07:06;20.10;;;9.90;;
34900;SDS011;21112;51.976;5.660;2022-09-30T09:12:04;24.23;;;12.93;;
34900;SDS011;21112;51.976;5.660;2022-09-30T09:14:38;20.90;;;12.02;;
34900;SDS011;21112;51.976;5.660;2022-09-30T09:17:10;22.50;;;11.05;;
34900;SDS011;21112;51.976;5.660;2022-09-30T09:19:41;26.00;;;13.65;;
34900;SDS011;21112;51.976;5.660;2022-09-30T09:24:35;22.02;;;10.82;;
34900;SDS011;21112;51.976;5.660;2022-09-30T09:27:11;26.30;;;14.15;;
34900;SDS011;21112;51.976;5.660;2022-09-30T09:29:42;22.33;;;11.90;;
34900;SDS011;21112;51.976;5.660;2022-09-30T09:32:15;22.73;;;13.10;;
34900;SDS011;21112;51.976;5.660;2022-09-30T09:34:44;27.50;;;13.07;;
34900;SDS011;21112;51.976;5.660;2022-09-30T09:37:14;26.40;;;13.57;;
34900;SDS011;21112;51.976;5.660;2022-09-30T09:39:47;27.45;;;12.73;;
34900;SDS011;21112;51.976;5.660;2022-09-30T09:42:23;24.05;;;13.15;;
34900;SDS011;21112;51.976;5.660;2022-09-30T09:44:53;25.92;;;12.68;;
34900;SDS011;21112;51.976;5.660;2022-09-30T09:47:21;26.83;;;13.35;;
34900;SDS011;21112;51.976;5.660;2022-09-30T09:49:50;24.73;;;12.00;;
34900;SDS011;21112;51.976;5.660;2022-09-30T09:52:27;20.98;;;10.90;;
34900;SDS011;21112;51.976;5.660;2022-09-30T09:54:59;21.33;;;10.85;;
34900;SDS011;21112;51.976;5.660;2022-09-30T09:57:25;21.77;;;10.40;;
34900;SDS011;21112;51.976;5.660;2022-09-30T09:59:56;19.63;;;10.43;;
34900;SDS011;21112;51.976;5.660;2022-09-30T10:02:26;18.48;;;10.45;;
34900;SDS011;21112;51.976;5.660;2022-09-30T10:04:54;23.55;;;10.05;;
34900;SDS011;21112;51.976;5.660;2022-09-30T10:07:28;19.08;;;10.07;;
34900;SDS011;21112;51.976;5.660;2022-09-30T10:10:05;16.30;;;9.95;;
34900;SDS011;21112;51.976;5.660;2022-09-30T10:12:32;17.23;;;9.40;;
34900;SDS011;21112;51.976;5.660;2022-09-30T10:17:41;17.45;;;9.52;;
34900;SDS011;21112;51.976;5.660;2022-09-30T10:20:17;17.88;;;9.38;;
34900;SDS011;21112;51.976;5.660;2022-09-30T10:22:46;16.52;;;8.98;;
34900;SDS011;21112;51.976;5.660;2022-09-30T10:25:23;19.02;;;9.80;;
34900;SDS011;21112;51.976;5.660;2022-09-30T10:27:51;18.55;;;9.60;;
34900;SDS011;21112;51.976;5.660;2022-09-30T10:30:35;15.98;;;9.18;;
34900;SDS011;21112;51.976;5.660;2022-09-30T10:33:03;15.90;;;8.65;;
34900;SDS011;21112;51.976;5.660;2022-09-30T10:35:48;16.02;;;8.35;;
34900;SDS011;21112;51.976;5.660;2022-09-30T10:38:15;14.20;;;7.60;;
34900;SDS011;21112;51.976;5.660;2022-09-30T10:40:42;17.15;;;7.70;;
34900;SDS011;21112;51.976;5.660;2022-09-30T10:43:20;13.85;;;7.38;;
34900;SDS011;21112;51.976;5.660;2022-09-30T10:45:48;13.05;;;6.75;;
34900;SDS011;21112;51.976;5.660;2022-09-30T10:48:16;12.80;;;6.65;;
34900;SDS011;21112;51.976;5.660;2022-09-30T10:50:49;11.27;;;5.80;;
34900;SDS011;21112;51.976;5.660;2022-09-30T10:53:17;10.55;;;5.85;;
34900;SDS011;21112;51.976;5.660;2022-09-30T10:55:45;12.18;;;5.63;;
34900;SDS011;21112;51.976;5.660;2022-09-30T10:58:23;12.18;;;6.40;;
34900;SDS011;21112;51.976;5.660;2022-09-30T11:00:53;11.85;;;5.63;;
34900;SDS011;21112;51.976;5.660;2022-09-30T11:03:20;11.07;;;5.90;;
34900;SDS011;21112;51.976;5.660;2022-09-30T11:05:51;12.43;;;5.75;;
34900;SDS011;21112;51.976;5.660;2022-09-30T11:10:47;11.50;;;4.90;;
34900;SDS011;21112;51.976;5.660;2022-09-30T11:13:16;12.70;;;6.50;;
34900;SDS011;21112;51.976;5.660;2022-09-30T11:15:48;13.25;;;6.30;;
34900;SDS011;21112;51.976;5.660;2022-09-30T11:18:22;12.38;;;6.35;;
34900;SDS011;21112;51.976;5.660;2022-09-30T11:20:54;10.88;;;5.88;;
34900;SDS011;21112;51.976;5.660;2022-09-30T11:23:24;13.63;;;6.25;;
34900;SDS011;21112;51.976;5.660;2022-09-30T11:25:55;10.85;;;5.72;;
34900;SDS011;21112;51.976;5.660;2022-09-30T11:28:34;11.57;;;6.10;;
34900;SDS011;21112;51.976;5.660;2022-09-30T11:31:05;12.82;;;6.65;;
34900;SDS011;21112;51.976;5.660;2022-09-30T11:33:40;14.35;;;6.57;;
34900;SDS011;21112;51.976;5.660;2022-09-30T11:36:10;12.13;;;6.07;;
34900;SDS011;21112;51.976;5.660;2022-09-30T11:38:42;16.10;;;6.28;;
34900;SDS011;21112;51.976;5.660;2022-09-30T11:41:13;12.65;;;6.18;;
34900;SDS011;21112;51.976;5.660;2022-09-30T11:43:44;10.52;;;5.32;;
34900;SDS011;21112;51.976;5.660;2022-09-30T11:46:27;11.23;;;5.22;;
34900;SDS011;21112;51.976;5.660;2022-09-30T11:49:05;11.80;;;5.18;;
34900;SDS011;21112;51.976;5.660;2022-09-30T11:51:36;7.57;;;4.03;;
34900;SDS011;21112;51.976;5.660;2022-09-30T11:54:09;9.40;;;4.03;;
34900;SDS011;21112;51.976;5.660;2022-09-30T11:56:41;8.55;;;4.68;;
34900;SDS011;21112;51.976;5.660;2022-09-30T11:59:11;10.98;;;4.32;;
34900;SDS011;21112;51.976;5.660;2022-09-30T12:01:41;10.32;;;3.90;;
34900;SDS011;21112;51.976;5.660;2022-09-30T12:06:38;6.65;;;3.28;;
34900;SDS011;21112;51.976;5.660;2022-09-30T12:09:08;7.30;;;3.40;;
34900;SDS011;21112;51.976;5.660;2022-09-30T12:11:42;5.85;;;2.90;;
34900;SDS011;21112;51.976;5.660;2022-09-30T12:14:11;6.38;;;3.00;;
34900;SDS011;21112;51.976;5.660;2022-09-30T12:16:40;11.98;;;3.28;;
34900;SDS011;21112;51.976;5.660;2022-09-30T12:19:10;5.70;;;2.80;;
34900;SDS011;21112;51.976;5.660;2022-09-30T12:21:43;5.80;;;2.50;;
34900;SDS011;21112;51.976;5.660;2022-09-30T12:24:12;4.47;;;2.40;;
34900;SDS011;21112;51.976;5.660;2022-09-30T12:26:42;6.65;;;1.98;;
34900;SDS011;21112;51.976;5.660;2022-09-30T12:29:11;4.38;;;2.03;;
34900;SDS011;21112;51.976;5.660;2022-09-30T12:32:17;4.03;;;1.90;;
34900;SDS011;21112;51.976;5.660;2022-09-30T12:34:50;4.65;;;1.95;;
34900;SDS011;21112;51.976;5.660;2022-09-30T12:37:24;3.88;;;1.83;;
34900;SDS011;21112;51.976;5.660;2022-09-30T12:40:13;3.70;;;1.80;;
34900;SDS011;21112;51.976;5.660;2022-09-30T12:45:34;4.78;;;2.10;;
34900;SDS011;21112;51.976;5.660;2022-09-30T12:48:05;4.25;;;1.98;;
34900;SDS011;21112;51.976;5.660;2022-09-30T12:50:33;4.07;;;2.10;;
34900;SDS011;21112;51.976;5.660;2022-09-30T12:53:09;3.20;;;1.48;;
34900;SDS011;21112;51.976;5.660;2022-09-30T12:55:37;4.10;;;1.80;;
34900;SDS011;21112;51.976;5.660;2022-09-30T12:58:05;3.50;;;1.60;;
34900;SDS011;21112;51.976;5.660;2022-09-30T13:03:02;3.65;;;1.48;;
34900;SDS011;21112;51.976;5.660;2022-09-30T13:05:46;2.53;;;1.40;;
34900;SDS011;21112;51.976;5.660;2022-09-30T13:08:22;2.90;;;1.23;;
34900;SDS011;21112;51.976;5.660;2022-09-30T13:10:55;2.35;;;1.13;;
34900;SDS011;21112;51.976;5.660;2022-09-30T13:13:23;3.13;;;1.35;;
34900;SDS011;21112;51.976;5.660;2022-09-30T13:15:50;3.35;;;1.38;;
34900;SDS011;21112;51.976;5.660;2022-09-30T13:21:21;2.63;;;1.55;;
34900;SDS011;21112;51.976;5.660;2022-09-30T13:23:49;2.30;;;1.05;;
34900;SDS011;21112;51.976;5.660;2022-09-30T13:32:06;3.22;;;1.40;;
34900;SDS011;21112;51.976;5.660;2022-09-30T13:34:46;2.33;;;1.20;;
34900;SDS011;21112;51.976;5.660;2022-09-30T13:37:28;3.70;;;1.30;;
34900;SDS011;21112;51.976;5.660;2022-09-30T13:39:57;2.17;;;1.33;;
34900;SDS011;21112;51.976;5.660;2022-09-30T13:42:26;3.28;;;1.40;;
34900;SDS011;21112;51.976;5.660;2022-09-30T13:47:21;3.05;;;1.55;;
34900;SDS011;21112;51.976;5.660;2022-09-30T13:49:51;3.90;;;1.20;;
34900;SDS011;21112;51.976;5.660;2022-09-30T13:52:23;2.28;;;1.30;;
34900;SDS011;21112;51.976;5.660;2022-09-30T13:54:50;2.33;;;1.20;;
34900;SDS011;21112;51.976;5.660;2022-09-30T13:57:22;4.90;;;1.70;;
34900;SDS011;21112;51.976;5.660;2022-09-30T13:59:52;3.17;;;1.70;;
34900;SDS011;21112;51.976;5.660;2022-09-30T14:05:12;5.65;;;1.60;;
34900;SDS011;21112;51.976;5.660;2022-09-30T14:07:45;4.85;;;1.90;;
34900;SDS011;21112;51.976;5.660;2022-09-30T14:10:20;3.58;;;1.58;;
34900;SDS011;21112;51.976;5.660;2022-09-30T14:12:55;3.58;;;1.60;;
34900;SDS011;21112;51.976;5.660;2022-09-30T14:18:23;3.90;;;1.70;;
34900;SDS011;21112;51.976;5.660;2022-09-30T14:20:58;2.55;;;1.52;;
34900;SDS011;21112;51.976;5.660;2022-09-30T14:23:27;3.55;;;1.80;;
34900;SDS011;21112;51.976;5.660;2022-09-30T14:25:56;5.10;;;1.70;;
34900;SDS011;21112;51.976;5.660;2022-09-30T14:28:28;5.82;;;1.83;;
34900;SDS011;21112;51.976;5.660;2022-09-30T14:30:58;5.65;;;1.67;;
34900;SDS011;21112;51.976;5.660;2022-09-30T14:33:37;5.97;;;2.00;;
34900;SDS011;21112;51.976;5.660;2022-09-30T14:36:05;8.95;;;1.90;;
34900;SDS011;21112;51.976;5.660;2022-09-30T14:38:33;6.50;;;2.00;;
34900;SDS011;21112;51.976;5.660;2022-09-30T14:41:02;5.85;;;1.73;;
34900;SDS011;21112;51.976;5.660;2022-09-30T14:43:34;3.42;;;1.50;;
34900;SDS011;21112;51.976;5.660;2022-09-30T14:46:03;3.42;;;1.30;;
34900;SDS011;21112;51.976;5.660;2022-09-30T14:48:31;4.53;;;1.42;;
34900;SDS011;21112;51.976;5.660;2022-09-30T14:50:59;6.03;;;1.65;;
34900;SDS011;21112;51.976;5.660;2022-09-30T14:53:29;2.90;;;1.50;;
34900;SDS011;21112;51.976;5.660;2022-09-30T14:55:56;3.08;;;1.50;;
34900;SDS011;21112;51.976;5.660;2022-09-30T14:58:23;3.67;;;1.20;;
34900;SDS011;21112;51.976;5.660;2022-09-30T15:00:58;6.05;;;1.65;;
34900;SDS011;21112;51.976;5.660;2022-09-30T15:03:25;4.68;;;1.80;;
34900;SDS011;21112;51.976;5.660;2022-09-30T15:05:52;3.83;;;1.73;;
34900;SDS011;21112;51.976;5.660;2022-09-30T15:08:19;6.13;;;1.45;;
34900;SDS011;21112;51.976;5.660;2022-09-30T15:10:47;2.97;;;1.40;;
34900;SDS011;21112;51.976;5.660;2022-09-30T15:13:16;5.10;;;1.35;;
34900;SDS011;21112;51.976;5.660;2022-09-30T15:15:43;2.85;;;1.58;;
34900;SDS011;21112;51.976;5.660;2022-09-30T15:18:27;3.78;;;1.90;;
34900;SDS011;21112;51.976;5.660;2022-09-30T15:20:59;5.22;;;1.67;;
34900;SDS011;21112;51.976;5.660;2022-09-30T15:25:53;7.97;;;3.05;;
34900;SDS011;21112;51.976;5.660;2022-09-30T15:28:19;7.20;;;2.92;;
34900;SDS011;21112;51.976;5.660;2022-09-30T15:30:46;3.10;;;1.60;;
34900;SDS011;21112;51.976;5.660;2022-09-30T15:33:16;4.63;;;1.67;;
34900;SDS011;21112;51.976;5.660;2022-09-30T15:35:44;3.70;;;1.42;;
34900;SDS011;21112;51.976;5.660;2022-09-30T15:38:14;2.30;;;1.15;;
34900;SDS011;21112;51.976;5.660;2022-09-30T15:40:42;3.47;;;1.40;;
34900;SDS011;21112;51.976;5.660;2022-09-30T15:43:13;3.15;;;1.50;;
34900;SDS011;21112;51.976;5.660;2022-09-30T15:45:41;4.82;;;1.65;;
34900;SDS011;21112;51.976;5.660;2022-09-30T15:48:31;3.35;;;1.50;;
34900;SDS011;21112;51.976;5.660;2022-09-30T15:51:21;3.28;;;1.50;;
34900;SDS011;21112;51.976;5.660;2022-09-30T15:53:48;5.40;;;1.88;;
34900;SDS011;21112;51.976;5.660;2022-09-30T15:56:20;2.97;;;1.30;;